Time;durP1;ratioP1;P1;durP2;ratioP2;P2;SDS_P1;SDS_P2;PMS_P1;PMS_P2;Temp;Humidity;BMP_temperature;BMP_pressure;BME280_temperature;BME280_humidity;BME280_pressure;Samples;Min_cycle;Max_cycle;Signal;HPM_P1;HPM_P2
2022/03/08 00:05:42;;;;;;;;;9.00;3.00;;;;;;;;2;261079022;261079022;-81
2022/03/08 00:13:57;;;;;;;;;23.00;20.00;;;;;;;;2;261076210;261076210;-79
2022/03/08 00:22:58;;;;;;;;;35.00;24.00;;;;;;;;2;261075993;261075993;-80
2022/03/08 00:31:14;;;;;;;;;32.50;21.50;;;;;;;;2;261076922;261076922;-80
2022/03/08 00:40:15;;;;;;;;;23.50;23.50;;;;;;;;2;261075536;261075536;-80
2022/03/08 00:51:49;;;;;;;;;39.50;30.50;;;;;;;;2;261076889;261076889;-80
2022/03/08 01:00:50;;;;;;;;;30.00;26.00;;;;;;;;2;261075990;261075990;-80
2022/03/08 01:09:05;;;;;;;;;26.00;17.00;;;;;;;;2;261077209;261077209;-80
2022/03/08 01:18:06;;;;;;;;;28.00;24.00;;;;;;;;2;261077146;261077146;-80
2022/03/08 01:26:21;;;;;;;;;30.00;25.50;;;;;;;;2;261074930;261074930;-80
2022/03/08 01:35:21;;;;;;;;;20.00;20.00;;;;;;;;2;261074809;261074809;-79
2022/03/08 01:43:37;;;;;;;;;35.00;31.00;;;;;;;;2;261078239;261078239;-79
2022/03/08 01:52:38;;;;;;;;;23.50;19.50;;;;;;;;2;261079256;261079256;-79
2022/03/08 02:00:53;;;;;;;;;47.00;20.00;;;;;;;;2;261080348;261080348;-79
2022/03/08 02:09:53;;;;;;;;;27.00;27.00;;;;;;;;2;261077033;261077033;-80
2022/03/08 02:18:09;;;;;;;;;27.00;15.00;;;;;;;;2;261077233;261077233;-79
2022/03/08 02:27:09;;;;;;;;;35.50;24.50;;;;;;;;2;261078492;261078492;-79
2022/03/08 02:35:27;;;;;;;;;33.00;25.50;;;;;;;;2;261076930;261076930;-79
2022/03/08 02:44:29;;;;;;;;;39.00;27.00;;;;;;;;2;261077280;261077280;-79
2022/03/08 02:52:46;;;;;;;;;25.50;13.50;;;;;;;;2;261081775;261081775;-79
2022/03/08 03:01:46;;;;;;;;;33.50;31.50;;;;;;;;2;261078824;261078824;-79
2022/03/08 03:10:04;;;;;;;;;41.00;25.00;;;;;;;;2;261077653;261077653;-79
2022/03/08 03:19:05;;;;;;;;;33.50;21.50;;;;;;;;2;261080814;261080814;-79
2022/03/08 03:27:20;;;;;;;;;28.50;25.00;;;;;;;;2;261076733;261076733;-79
2022/03/08 03:36:21;;;;;;;;;26.50;26.50;;;;;;;;2;261076490;261076490;-80
2022/03/08 03:44:36;;;;;;;;;34.50;23.50;;;;;;;;2;261074700;261074700;-80
2022/03/08 03:53:37;;;;;;;;;21.50;21.50;;;;;;;;2;261079074;261079074;-80
2022/03/08 04:01:52;;;;;;;;;34.00;31.00;;;;;;;;2;261078604;261078604;-80
2022/03/08 04:10:52;;;;;;;;;31.50;30.00;;;;;;;;2;261076139;261076139;-79
2022/03/08 04:19:08;;;;;;;;;29.50;24.00;;;;;;;;2;261075502;261075502;-80
2022/03/08 04:28:08;;;;;;;;;27.00;20.50;;;;;;;;2;261077237;261077237;-80
2022/03/08 04:36:23;;;;;;;;;24.50;19.50;;;;;;;;2;261076936;261076936;-79
2022/03/08 04:45:24;;;;;;;;;37.50;22.00;;;;;;;;2;261077939;261077939;-80
2022/03/08 04:53:40;;;;;;;;;14.00;8.50;;;;;;;;2;261077257;261077257;-80
2022/03/08 05:02:41;;;;;;;;;50.50;26.50;;;;;;;;2;261074910;261074910;-80
2022/03/08 05:10:56;;;;;;;;;35.00;23.50;;;;;;;;2;261073991;261073991;-80
2022/03/08 05:19:57;;;;;;;;;22.00;22.00;;;;;;;;2;261075922;261075922;-80
2022/03/08 05:28:12;;;;;;;;;47.50;27.50;;;;;;;;2;261076375;261076375;-80
2022/03/08 05:37:13;;;;;;;;;24.50;24.00;;;;;;;;2;261076881;261076881;-80
2022/03/08 05:45:29;;;;;;;;;34.00;23.00;;;;;;;;2;261072971;261072971;-80
2022/03/08 05:54:29;;;;;;;;;31.50;28.00;;;;;;;;2;261077782;261077782;-80
2022/03/08 06:02:45;;;;;;;;;28.50;20.00;;;;;;;;2;261076884;261076884;-79
2022/03/08 06:11:45;;;;;;;;;47.00;31.00;;;;;;;;2;261074517;261074517;-80
2022/03/08 06:20:01;;;;;;;;;25.00;25.00;;;;;;;;2;261080651;261080651;-81
2022/03/08 06:29:01;;;;;;;;;49.50;34.00;;;;;;;;2;261080119;261080119;-82
2022/03/08 06:37:17;;;;;;;;;24.00;20.00;;;;;;;;2;261081223;261081223;-82
2022/03/08 06:46:18;;;;;;;;;33.50;25.00;;;;;;;;2;261077808;261077808;-82
2022/03/08 06:54:34;;;;;;;;;31.50;19.50;;;;;;;;2;261075673;261075673;-81
2022/03/08 07:03:34;;;;;;;;;33.00;22.00;;;;;;;;2;261078635;261078635;-80
2022/03/08 07:11:50;;;;;;;;;26.00;20.50;;;;;;;;2;261075896;261075896;-79
2022/03/08 07:20:50;;;;;;;;;20.50;18.00;;;;;;;;2;261074759;261074759;-79
2022/03/08 07:29:06;;;;;;;;;46.50;31.00;;;;;;;;2;261082822;261082822;-79
2022/03/08 07:38:06;;;;;;;;;36.00;24.50;;;;;;;;2;261079139;261079139;-80
2022/03/08 07:46:21;;;;;;;;;43.50;30.00;;;;;;;;2;261077511;261077511;-80
2022/03/08 07:55:22;;;;;;;;;34.50;21.50;;;;;;;;2;261077813;261077813;-80
2022/03/08 08:03:37;;;;;;;;;25.00;25.00;;;;;;;;2;261079430;261079430;-80
2022/03/08 08:12:38;;;;;;;;;38.50;33.00;;;;;;;;2;261075782;261075782;-80
2022/03/08 08:20:54;;;;;;;;;50.00;40.00;;;;;;;;2;261075575;261075575;-79
2022/03/08 08:29:54;;;;;;;;;28.50;25.00;;;;;;;;2;261074739;261074739;-80
2022/03/08 08:38:09;;;;;;;;;30.00;28.00;;;;;;;;2;261075794;261075794;-80
2022/03/08 08:47:10;;;;;;;;;38.50;32.00;;;;;;;;2;261078648;261078648;-80
2022/03/08 08:55:25;;;;;;;;;45.50;32.00;;;;;;;;2;261076057;261076057;-80
2022/03/08 09:04:26;;;;;;;;;44.50;31.00;;;;;;;;2;261075745;261075745;-80
2022/03/08 09:12:43;;;;;;;;;55.50;32.50;;;;;;;;2;261077583;261077583;-80
2022/03/08 09:21:43;;;;;;;;;46.00;32.50;;;;;;;;2;261075722;261075722;-81
2022/03/08 09:29:58;;;;;;;;;33.00;28.00;;;;;;;;2;261079483;261079483;-81
2022/03/08 09:38:59;;;;;;;;;44.00;36.00;;;;;;;;2;261075283;261075283;-81
2022/03/08 09:47:15;;;;;;;;;41.50;34.50;;;;;;;;2;261074947;261074947;-81
2022/03/08 09:56:18;;;;;;;;;57.50;42.00;;;;;;;;2;261076127;261076127;-81
2022/03/08 10:04:34;;;;;;;;;45.50;39.50;;;;;;;;2;261076597;261076597;-81
2022/03/08 10:13:39;;;;;;;;;53.00;40.00;;;;;;;;2;261074221;261074221;-81
2022/03/08 10:21:57;;;;;;;;;44.50;39.00;;;;;;;;2;261073300;261073300;-81
2022/03/08 10:30:57;;;;;;;;;35.50;32.00;;;;;;;;2;261073568;261073568;-82
2022/03/08 10:39:14;;;;;;;;;48.50;35.50;;;;;;;;2;261079013;261079013;-81
2022/03/08 10:48:18;;;;;;;;;52.00;42.50;;;;;;;;2;261076035;261076035;-81
2022/03/08 10:56:41;;;;;;;;;49.50;36.00;;;;;;;;2;261077729;261077729;-81
2022/03/08 11:05:45;;;;;;;;;43.00;38.00;;;;;;;;2;261073089;261073089;-81
2022/03/08 11:14:01;;;;;;;;;47.00;31.00;;;;;;;;2;261072078;261072078;-81
2022/03/08 11:23:02;;;;;;;;;40.00;36.00;;;;;;;;2;261078320;261078320;-81
2022/03/08 11:31:19;;;;;;;;;50.00;42.00;;;;;;;;2;261075075;261075075;-81
2022/03/08 11:40:20;;;;;;;;;57.50;40.00;;;;;;;;2;261076387;261076387;-81
2022/03/08 11:48:48;;;;;;;;;49.50;34.50;;;;;;;;2;261075439;261075439;-81
2022/03/08 11:57:49;;;;;;;;;45.50;39.50;;;;;;;;2;261073422;261073422;-81
2022/03/08 12:06:19;;;;;;;;;37.50;34.00;;;;;;;;2;261075780;261075780;-81
2022/03/08 12:15:20;;;;;;;;;37.50;32.50;;;;;;;;2;261078420;261078420;-81
2022/03/08 12:23:55;;;;;;;;;41.00;34.50;;;;;;;;2;261077317;261077317;-81
2022/03/08 12:32:56;;;;;;;;;56.50;39.00;;;;;;;;2;261076230;261076230;-81
2022/03/08 12:41:15;;;;;;;;;38.00;34.50;;;;;;;;2;261076248;261076248;-81
2022/03/08 12:50:16;;;;;;;;;58.00;36.00;;;;;;;;2;261075291;261075291;-81
2022/03/08 12:58:34;;;;;;;;;43.50;32.50;;;;;;;;2;261076358;261076358;-81
2022/03/08 13:07:48;;;;;;;;;33.00;27.50;;;;;;;;2;261072503;261072503;-81
2022/03/08 13:16:04;;;;;;;;;48.50;33.50;;;;;;;;2;261073900;261073900;-81
2022/03/08 13:25:06;;;;;;;;;32.00;26.50;;;;;;;;2;261076058;261076058;-80
2022/03/08 13:33:24;;;;;;;;;31.00;30.00;;;;;;;;2;261073125;261073125;-80
2022/03/08 13:42:27;;;;;;;;;45.50;34.50;;;;;;;;2;261073778;261073778;-81
2022/03/08 13:50:46;;;;;;;;;24.50;23.50;;;;;;;;2;261075246;261075246;-81
2022/03/08 13:59:46;;;;;;;;;36.50;29.00;;;;;;;;2;261074158;261074158;-80
2022/03/08 14:08:02;;;;;;;;;47.00;28.00;;;;;;;;2;261072229;261072229;-80
2022/03/08 14:17:04;;;;;;;;;31.50;30.50;;;;;;;;2;261074565;261074565;-80
2022/03/08 14:25:20;;;;;;;;;35.00;23.00;;;;;;;;2;261075952;261075952;-80
2022/03/08 14:34:21;;;;;;;;;48.50;36.50;;;;;;;;2;261074371;261074371;-81
2022/03/08 14:55:19;;;;;;;;;55.50;39.00;;;;;;;;175617;28;261075290;-85
2022/03/08 15:04:19;;;;;;;;;32.50;17.50;;;;;;;;2;261078827;261078827;-81
2022/03/08 15:12:35;;;;;;;;;35.00;32.50;;;;;;;;2;261078940;261078940;-82
2022/03/08 15:21:36;;;;;;;;;58.00;41.00;;;;;;;;2;261074645;261074645;-79
2022/03/08 15:29:51;;;;;;;;;40.00;29.50;;;;;;;;2;261074972;261074972;-82
2022/03/08 15:38:53;;;;;;;;;39.50;21.50;;;;;;;;2;261077715;261077715;-81
2022/03/08 15:47:10;;;;;;;;;52.50;40.50;;;;;;;;2;261083737;261083737;-82
2022/03/08 15:56:11;;;;;;;;;64.50;34.50;;;;;;;;2;261080857;261080857;-81
2022/03/08 16:04:26;;;;;;;;;47.00;38.50;;;;;;;;2;261073657;261073657;-82
2022/03/08 16:13:27;;;;;;;;;43.50;38.00;;;;;;;;2;261077078;261077078;-80
2022/03/08 16:21:42;;;;;;;;;58.00;35.00;;;;;;;;2;261076763;261076763;-82
2022/03/08 16:30:46;;;;;;;;;38.00;30.50;;;;;;;;2;261080792;261080792;-81
2022/03/08 16:39:01;;;;;;;;;58.50;42.00;;;;;;;;2;261078041;261078041;-81
2022/03/08 16:48:02;;;;;;;;;67.50;41.50;;;;;;;;2;261075140;261075140;-81
2022/03/08 16:56:17;;;;;;;;;45.50;40.00;;;;;;;;2;261075921;261075921;-81
2022/03/08 17:05:18;;;;;;;;;54.00;37.50;;;;;;;;2;261077952;261077952;-81
2022/03/08 17:13:33;;;;;;;;;40.00;34.00;;;;;;;;2;261074587;261074587;-83
2022/03/08 17:22:34;;;;;;;;;50.00;37.50;;;;;;;;2;261078901;261078901;-82
2022/03/08 17:30:49;;;;;;;;;56.00;34.00;;;;;;;;2;261076413;261076413;-82
2022/03/08 17:39:50;;;;;;;;;45.00;37.50;;;;;;;;2;261077163;261077163;-82
2022/03/08 17:48:05;;;;;;;;;54.50;34.50;;;;;;;;2;261080298;261080298;-82
2022/03/08 17:57:07;;;;;;;;;55.50;40.50;;;;;;;;2;261075943;261075943;-82
2022/03/08 18:43:13;;;;;;;;;60.00;37.50;;;;;;;;2;261077059;261077059;-80
2022/03/08 18:52:16;;;;;;;;;47.00;35.50;;;;;;;;2;261075220;261075220;-80
2022/03/08 19:00:52;;;;;;;;;51.50;37.50;;;;;;;;2;261082446;261082446;-80
2022/03/08 19:09:53;;;;;;;;;55.00;42.00;;;;;;;;2;261080743;261080743;-80
2022/03/08 19:18:09;;;;;;;;;61.50;41.50;;;;;;;;2;261082489;261082489;-80
2022/03/08 19:27:12;;;;;;;;;67.50;46.50;;;;;;;;2;261075472;261075472;-80
2022/03/08 19:35:27;;;;;;;;;60.00;45.00;;;;;;;;2;261079943;261079943;-78
2022/03/08 19:44:27;;;;;;;;;54.00;45.50;;;;;;;;2;261077568;261077568;-80
2022/03/08 19:52:43;;;;;;;;;66.50;44.50;;;;;;;;2;261076915;261076915;-80
2022/03/08 20:01:43;;;;;;;;;63.50;44.00;;;;;;;;2;261079232;261079232;-80
2022/03/08 20:09:59;;;;;;;;;59.00;47.50;;;;;;;;2;261078183;261078183;-80
2022/03/08 20:18:59;;;;;;;;;60.50;48.00;;;;;;;;2;261079281;261079281;-80
2022/03/08 20:27:15;;;;;;;;;68.50;49.00;;;;;;;;2;261077855;261077855;-79
2022/03/08 20:36:15;;;;;;;;;80.50;52.50;;;;;;;;2;261074486;261074486;-79
2022/03/08 20:44:31;;;;;;;;;75.50;49.50;;;;;;;;2;261077741;261077741;-79
2022/03/08 20:53:33;;;;;;;;;43.50;38.00;;;;;;;;2;261077299;261077299;-80
2022/03/08 21:01:48;;;;;;;;;62.50;47.00;;;;;;;;2;261077648;261077648;-79
2022/03/08 21:10:51;;;;;;;;;51.50;39.00;;;;;;;;2;261074969;261074969;-80
2022/03/08 21:19:07;;;;;;;;;50.50;39.50;;;;;;;;2;261076392;261076392;-81
2022/03/08 21:28:07;;;;;;;;;59.00;47.00;;;;;;;;2;261079629;261079629;-81
2022/03/08 21:36:23;;;;;;;;;61.50;43.50;;;;;;;;2;261076891;261076891;-81
2022/03/08 21:45:24;;;;;;;;;40.00;30.50;;;;;;;;2;261072391;261072391;-85
2022/03/08 21:53:40;;;;;;;;;58.00;37.50;;;;;;;;2;261073698;261073698;-84
2022/03/08 22:02:42;;;;;;;;;52.50;43.00;;;;;;;;2;261076192;261076192;-85
2022/03/08 22:10:59;;;;;;;;;69.50;43.50;;;;;;;;2;261082609;261082609;-83
2022/03/08 22:20:00;;;;;;;;;49.50;42.00;;;;;;;;2;261080113;261080113;-85
2022/03/08 22:28:16;;;;;;;;;44.00;24.00;;;;;;;;2;261076891;261076891;-86
2022/03/08 22:37:17;;;;;;;;;46.50;37.00;;;;;;;;2;261080749;261080749;-83
2022/03/08 22:45:32;;;;;;;;;40.00;27.50;;;;;;;;2;261081286;261081286;-84
2022/03/08 22:54:33;;;;;;;;;38.50;32.50;;;;;;;;2;261080644;261080644;-83
2022/03/08 23:02:48;;;;;;;;;44.00;39.00;;;;;;;;2;261077803;261077803;-84
2022/03/08 23:11:48;;;;;;;;;53.50;32.00;;;;;;;;2;261081451;261081451;-84
2022/03/08 23:20:05;;;;;;;;;50.00;40.00;;;;;;;;2;261079399;261079399;-83
2022/03/08 23:29:05;;;;;;;;;62.00;36.50;;;;;;;;2;261080260;261080260;-84
2022/03/08 23:37:20;;;;;;;;;51.00;34.50;;;;;;;;2;261081413;261081413;-84
2022/03/08 23:46:21;;;;;;;;;51.00;38.00;;;;;;;;2;261079338;261079338;-83
2022/03/08 23:54:36;;;;;;;;;58.50;34.50;;;;;;;;2;261080644;261080644;-83
